»·PEaware :: N234WT KWHP-KSBP

N234WT :: KWHP-KSBP

FLIGHT INFORMATION

Flight Status: Arrived
Operator: Privately registered:
United States
More flights under this callsign
Pilot: Matt T. (44807)
Aircraft: CESSNA 172 SKYHAWK
(C172)
More flights by this aircraft type
Origin: KWHP Whiteman
United States
Destination: KSBP San Luis Co Regl
United States
More flights between these airports :: More routes between these airports
Route:
File this flight plan on PilotEdge
Remarks:
Altitude:
(Current/Filed)
10,500ft
Speed:
(Current/Filed)
0kts
Departed: 01-Nov-23 08:49 PM
Arrived: 01-Nov-23 09:57 PM
Distance/Time
Traveled:
124nm/1:08
Distance/Time
To Go:
Arrived

Flight Plot

Page will automatically refresh every two minutes.

Flight plan parsing failed; only flown route is shown


Map Options




Map Legend


Flown Route
Filed Route
Departure Airport
Arrival Airport
Navaid (VOR, NDB)
Fix

Horizontal Profiles

Position Reports

Time Latitude Longitude Heading Altitude Ground
Speed
01-Nov-23 20:47 34.418684 -118.473463 348 6830ft 72kts
01-Nov-23 20:48 34.435791 -118.479994 348 7264ft 69kts
01-Nov-23 20:49 34.457639 -118.488386 347 7675ft 91kts
01-Nov-23 20:50 34.483572 -118.498554 346 8107ft 102kts
01-Nov-23 20:51 34.510795 -118.509240 346 8606ft 102kts
01-Nov-23 20:52 34.536032 -118.519198 346 9198ft 87kts
01-Nov-23 20:53 34.557948 -118.527849 347 9774ft 79kts
01-Nov-23 20:54 34.577197 -118.535507 346 10240ft 68kts
01-Nov-23 20:55 34.599451 -118.544113 346 10413ft 100kts
01-Nov-23 20:56 34.627926 -118.555292 345 10546ft 114kts
01-Nov-23 20:57 34.659638 -118.567768 344 10542ft 123kts
01-Nov-23 20:58 34.687712 -118.589385 294 10526ft 129kts
01-Nov-23 20:59 34.703137 -118.629541 297 10528ft 129kts
01-Nov-23 21:00 34.718301 -118.669009 296 10519ft 126kts
01-Nov-23 21:01 34.732164 -118.706226 291 10524ft 115kts
01-Nov-23 21:02 34.742272 -118.741873 290 10508ft 107kts
01-Nov-23 21:03 34.749052 -118.775429 294 10518ft 103kts
01-Nov-23 21:04 34.756181 -118.808103 292 10515ft 100kts
01-Nov-23 21:05 34.766116 -118.840273 293 10520ft 102kts
01-Nov-23 21:06 34.776123 -118.872044 292 10497ft 98kts
01-Nov-23 21:07 34.787811 -118.900957 294 10516ft 95kts
01-Nov-23 21:08 34.798772 -118.933766 292 10526ft 113kts
01-Nov-23 21:09 34.810535 -118.970759 293 10528ft 119kts
01-Nov-23 21:10 34.822356 -119.008123 292 10518ft 117kts
01-Nov-23 21:11 34.834123 -119.045232 293 10522ft 118kts
01-Nov-23 21:12 34.846063 -119.082947 292 10523ft 121kts
01-Nov-23 21:13 34.858377 -119.121813 292 10521ft 125kts
01-Nov-23 21:14 34.870688 -119.160023 292 10518ft 120kts
01-Nov-23 21:15 34.882818 -119.198036 291 10514ft 119kts
01-Nov-23 21:16 34.894749 -119.235506 292 10508ft 119kts
01-Nov-23 21:17 34.906534 -119.272591 292 10521ft 117kts
01-Nov-23 21:18 34.918361 -119.309844 292 10520ft 116kts
01-Nov-23 21:19 34.930063 -119.346758 291 10522ft 116kts
01-Nov-23 21:20 34.941729 -119.383590 292 10522ft 117kts
01-Nov-23 21:21 34.953364 -119.420379 292 10523ft 116kts
01-Nov-23 21:22 34.964973 -119.457125 292 10522ft 116kts
01-Nov-23 21:23 34.976604 -119.493968 292 10523ft 117kts
01-Nov-23 21:24 34.988256 -119.530961 292 10522ft 116kts
01-Nov-23 21:25 34.999859 -119.567814 291 10522ft 116kts
01-Nov-23 21:26 35.011493 -119.604834 292 10527ft 117kts
01-Nov-23 21:27 35.023020 -119.641546 292 10526ft 115kts
01-Nov-23 21:28 35.034606 -119.678482 291 10512ft 118kts
01-Nov-23 21:29 35.046819 -119.717464 292 10351ft 122kts
01-Nov-23 21:30 35.058664 -119.755343 292 10350ft 118kts
01-Nov-23 21:31 35.070367 -119.792822 292 10350ft 118kts
01-Nov-23 21:32 35.081887 -119.829752 292 10347ft 115kts
01-Nov-23 21:33 35.093236 -119.866190 292 10346ft 116kts
01-Nov-23 21:34 35.100431 -119.904651 284 10346ft 116kts
01-Nov-23 21:35 35.107697 -119.943193 284 10349ft 117kts
01-Nov-23 21:36 35.114980 -119.981901 284 10349ft 116kts
01-Nov-23 21:37 35.122279 -120.020722 284 10348ft 116kts
01-Nov-23 21:38 35.129506 -120.059282 285 10344ft 116kts
01-Nov-23 21:39 35.136645 -120.097437 284 10344ft 115kts
01-Nov-23 21:40 35.138893 -120.135888 267 10340ft 113kts
01-Nov-23 21:41 35.136592 -120.176108 267 10133ft 127kts
01-Nov-23 21:42 35.133658 -120.225418 268 8295ft 141kts
01-Nov-23 21:43 35.130795 -120.272419 268 6402ft 138kts
01-Nov-23 21:44 35.127987 -120.318444 268 4457ft 133kts
01-Nov-23 21:45 35.125611 -120.355643 268 3815ft 80kts
01-Nov-23 21:46 35.123703 -120.386415 268 3836ft 95kts
01-Nov-23 21:47 35.121645 -120.419904 268 3801ft 112kts
01-Nov-23 21:48 35.121564 -120.456554 279 3335ft 100kts
01-Nov-23 21:49 35.141376 -120.475223 316 2970ft 98kts
01-Nov-23 21:50 35.158257 -120.502488 309 2592ft 100kts
01-Nov-23 21:51 35.174741 -120.531178 309 2213ft 95kts
01-Nov-23 21:52 35.189130 -120.556367 308 1944ft 93kts
01-Nov-23 21:53 35.204894 -120.583936 306 1364ft 100kts
01-Nov-23 21:54 35.219670 -120.609837 306 791ft 87kts
01-Nov-23 21:55 35.232815 -120.633157 308 249ft 71kts
01-Nov-23 21:56 35.239605 -120.644143 9 181ft 17kts
01-Nov-23 21:57 35.239659 -120.643201 124 189ft 12kts
01-Nov-23 21:58 35.238653 -120.639291 31 197ft 1kts
01-Nov-23 21:59 35.238669 -120.639286 7 196ft 0kts
01-Nov-23 22:00 35.238669 -120.639286 7 196ft 0kts
01-Nov-23 22:01 35.238669 -120.639286 7 193ft 0kts

Navigation Log

Ident Type
Flight plan parsing failed, navigation log unavailable